createdAt,value
2023-05-18T00:00:16.371Z,12.93
2023-05-18T00:03:23.348Z,12.84
2023-05-18T00:06:27.984Z,12.86
2023-05-18T00:09:39.348Z,12.77
2023-05-18T00:12:43.888Z,12.82
2023-05-18T00:15:54.024Z,12.75
2023-05-18T00:18:56.662Z,12.68
2023-05-18T00:22:02.306Z,12.72
2023-05-18T00:25:07.736Z,12.66
2023-05-18T00:28:12.734Z,12.69
2023-05-18T00:31:15.025Z,12.68
2023-05-18T00:34:22.149Z,12.71
2023-05-18T00:37:24.506Z,12.70
2023-05-18T00:40:30.082Z,12.64
2023-05-18T00:43:32.284Z,12.69
2023-05-18T00:46:36.711Z,12.63
2023-05-18T00:49:39.073Z,12.59
2023-05-18T00:52:44.114Z,12.54
2023-05-18T00:55:46.451Z,12.55
2023-05-18T00:58:49.470Z,12.45
2023-05-18T01:01:57.052Z,12.40
2023-05-18T01:05:06.022Z,12.45
2023-05-18T01:08:13.207Z,12.51
2023-05-18T01:11:19.840Z,12.48
2023-05-18T01:14:31.939Z,12.45
2023-05-18T01:17:47.483Z,12.47
2023-05-18T01:20:57.648Z,12.46
2023-05-18T01:24:26.067Z,12.50
2023-05-18T01:27:28.594Z,12.42
2023-05-18T01:30:31.214Z,12.48
2023-05-18T01:33:33.560Z,12.47
2023-05-18T01:36:39.480Z,12.46
2023-05-18T01:39:42.386Z,12.56
2023-05-18T01:42:56.331Z,12.41
2023-05-18T01:46:05.856Z,12.40
2023-05-18T01:49:21.367Z,12.41
2023-05-18T01:52:32.207Z,12.42
2023-05-18T01:55:36.989Z,12.39
2023-05-18T01:58:42.387Z,12.32
2023-05-18T02:01:45.327Z,12.35
2023-05-18T02:04:51.336Z,12.32
2023-05-18T02:07:55.979Z,12.17
2023-05-18T02:10:58.771Z,12.38
2023-05-18T02:14:01.540Z,12.38
2023-05-18T02:17:04.153Z,12.28
2023-05-18T02:20:10.028Z,12.41
2023-05-18T02:23:12.333Z,12.37
2023-05-18T02:26:14.653Z,12.37
2023-05-18T02:29:21.561Z,12.32
2023-05-18T02:32:26.388Z,12.35
2023-05-18T02:35:29.037Z,12.34
2023-05-18T02:38:34.190Z,12.37
2023-05-18T02:41:39.990Z,12.37
2023-05-18T02:44:42.669Z,12.21
2023-05-18T02:47:50.119Z,12.25
2023-05-18T02:50:53.033Z,12.25
2023-05-18T02:54:00.668Z,12.27
2023-05-18T02:57:06.333Z,12.25
2023-05-18T03:00:17.780Z,12.26
2023-05-18T03:03:27.774Z,12.24
2023-05-18T03:06:32.638Z,12.31
2023-05-18T03:09:35.001Z,12.24
2023-05-18T03:12:38.491Z,12.19
2023-05-18T03:15:45.580Z,12.20
2023-05-18T03:18:50.104Z,12.25
2023-05-18T03:21:54.204Z,12.21
2023-05-18T03:24:58.917Z,12.20
2023-05-18T03:28:04.944Z,12.14
2023-05-18T03:31:11.145Z,12.03
2023-05-18T03:34:16.159Z,12.13
2023-05-18T03:37:21.652Z,12.20
2023-05-18T03:40:24.899Z,12.17
2023-05-18T03:43:32.518Z,12.18
2023-05-18T03:46:38.902Z,12.12
2023-05-18T03:49:43.559Z,12.16
2023-05-18T03:52:46.221Z,12.10
2023-05-18T03:55:52.457Z,12.16
2023-05-18T03:58:58.534Z,12.14
2023-05-18T04:02:01.408Z,12.17
2023-05-18T04:05:09.897Z,12.17
2023-05-18T04:08:14.895Z,12.10
2023-05-18T04:11:17.247Z,12.10
2023-05-18T04:14:24.628Z,12.02
2023-05-18T04:17:27.028Z,12.07
2023-05-18T04:20:32.171Z,12.10
2023-05-18T04:23:38.996Z,12.14
2023-05-18T04:26:44.403Z,12.13
2023-05-18T04:29:47.454Z,12.20
2023-05-18T04:32:51.260Z,12.27
2023-05-18T04:35:58.857Z,12.15
2023-05-18T04:39:07.800Z,12.31
2023-05-18T04:42:14.108Z,12.29
2023-05-18T04:45:19.643Z,12.32
2023-05-18T04:48:26.657Z,12.24
2023-05-18T04:51:34.853Z,12.19
2023-05-18T04:54:37.230Z,12.29
2023-05-18T04:57:39.705Z,12.35
2023-05-18T05:00:43.171Z,12.34
2023-05-18T05:03:46.696Z,12.37
2023-05-18T05:06:49.134Z,12.43
2023-05-18T05:09:54.231Z,12.49
2023-05-18T05:12:56.681Z,12.38
2023-05-18T05:16:00.019Z,12.46
2023-05-18T05:19:04.826Z,12.46
2023-05-18T05:22:07.342Z,12.51
2023-05-18T05:25:10.258Z,12.54
2023-05-18T05:28:13.157Z,12.55
2023-05-18T05:31:16.560Z,12.52
2023-05-18T05:34:19.591Z,12.51
2023-05-18T05:37:22.176Z,12.50
2023-05-18T05:40:25.698Z,12.47
2023-05-18T05:43:31.043Z,12.46
2023-05-18T05:46:33.454Z,12.47
2023-05-18T05:49:39.469Z,12.47
2023-05-18T05:52:42.273Z,12.45
2023-05-18T05:55:49.328Z,12.44
2023-05-18T05:58:57.048Z,12.34
2023-05-18T06:02:02.732Z,12.37
2023-05-18T06:05:08.470Z,12.47
2023-05-18T06:08:10.906Z,12.46
2023-05-18T06:11:13.559Z,12.44
2023-05-18T06:14:18.803Z,12.50
2023-05-18T06:17:27.721Z,12.52
2023-05-18T06:20:32.930Z,12.54
2023-05-18T06:23:39.468Z,12.61
2023-05-18T06:26:54.948Z,12.53
2023-05-18T06:30:13.026Z,12.43
2023-05-18T06:33:34.605Z,12.49
2023-05-18T06:36:38.164Z,12.59
2023-05-18T06:39:40.765Z,12.50
2023-05-18T06:42:43.784Z,12.50
2023-05-18T06:46:05.081Z,12.46
2023-05-18T06:49:14.414Z,12.48
2023-05-18T06:52:16.876Z,12.50
2023-05-18T06:55:23.399Z,12.42
2023-05-18T06:58:26.267Z,12.33
2023-05-18T07:01:33.821Z,12.23
2023-05-18T07:04:38.586Z,12.21
2023-05-18T07:07:43.538Z,12.30
2023-05-18T07:10:48.187Z,12.19
2023-05-18T07:13:52.885Z,12.23
2023-05-18T07:16:55.812Z,12.23
2023-05-18T07:20:00.697Z,12.30
2023-05-18T07:23:05.257Z,12.29
2023-05-18T07:26:14.456Z,12.31
2023-05-18T07:29:16.947Z,12.37
2023-05-18T07:32:21.954Z,12.36
2023-05-18T07:35:29.210Z,12.33
2023-05-18T07:38:34.312Z,12.46
2023-05-18T07:41:36.861Z,12.45
2023-05-18T07:44:44.399Z,12.51
2023-05-18T07:47:46.726Z,12.55
2023-05-18T07:50:51.730Z,12.45
2023-05-18T07:53:58.862Z,12.41
2023-05-18T07:57:04.317Z,12.45
2023-05-18T08:00:09.158Z,12.55
2023-05-18T08:03:21.226Z,12.66
2023-05-18T08:06:26.169Z,12.67
2023-05-18T08:09:33.252Z,12.66
2023-05-18T08:12:37.937Z,12.70
2023-05-18T08:15:43.136Z,12.71
2023-05-18T08:18:47.806Z,12.64
2023-05-18T08:21:52.421Z,12.74
2023-05-18T08:24:54.839Z,12.81
2023-05-18T08:28:01.981Z,12.91
2023-05-18T08:31:04.482Z,12.98
2023-05-18T08:34:08.148Z,13.13
2023-05-18T08:37:12.862Z,13.16
2023-05-18T08:40:15.749Z,13.22
2023-05-18T08:43:23.252Z,13.18
2023-05-18T08:46:38.905Z,13.20
2023-05-18T08:49:42.609Z,13.16
2023-05-18T08:52:48.732Z,13.14
2023-05-18T08:55:54.475Z,13.28
2023-05-18T08:58:58.069Z,13.36
2023-05-18T09:02:00.590Z,13.24
2023-05-18T09:05:09.022Z,13.37
2023-05-18T09:08:12.424Z,13.52
2023-05-18T09:11:18.818Z,13.63
2023-05-18T09:14:26.096Z,13.55
2023-05-18T09:17:28.546Z,13.55
2023-05-18T09:20:35.078Z,13.65
2023-05-18T09:23:41.607Z,13.82
2023-05-18T09:26:43.981Z,13.91
2023-05-18T09:29:57.214Z,13.83
2023-05-18T09:32:59.631Z,13.96
2023-05-18T09:36:04.279Z,13.95
2023-05-18T09:39:11.811Z,14.03
2023-05-18T09:42:14.148Z,13.96
2023-05-18T09:45:26.752Z,14.07
2023-05-18T09:48:29.269Z,14.16
2023-05-18T09:51:35.678Z,14.26
2023-05-18T09:54:40.255Z,14.39
2023-05-18T09:57:49.945Z,14.45
2023-05-18T10:01:00.800Z,14.39
2023-05-18T10:04:08.874Z,14.32
2023-05-18T10:07:15.638Z,14.26
2023-05-18T10:10:21.666Z,14.28
2023-05-18T10:13:29.373Z,14.30
2023-05-18T10:16:34.261Z,14.36
2023-05-18T10:19:43.464Z,14.47
2023-05-18T10:22:54.314Z,14.25
2023-05-18T10:25:57.430Z,14.36
2023-05-18T10:29:00.625Z,14.50
2023-05-18T10:32:08.121Z,14.53
2023-05-18T10:35:16.273Z,14.57
2023-05-18T10:38:30.894Z,14.65
2023-05-18T10:41:37.059Z,14.71
2023-05-18T10:44:40.776Z,14.62
2023-05-18T10:47:46.963Z,14.70
2023-05-18T10:50:56.087Z,14.73
2023-05-18T10:54:14.570Z,14.79
2023-05-18T10:57:20.872Z,14.75
2023-05-18T11:00:26.030Z,14.63
2023-05-18T11:03:28.928Z,14.61
2023-05-18T11:06:33.635Z,14.65
2023-05-18T11:09:42.756Z,14.74
2023-05-18T11:12:46.327Z,14.85
2023-05-18T11:15:55.258Z,14.94
2023-05-18T11:19:11.474Z,14.91
2023-05-18T11:22:18.718Z,14.83
2023-05-18T11:25:34.000Z,14.78
2023-05-18T11:28:43.654Z,14.77
2023-05-18T11:32:05.266Z,14.77
2023-05-18T11:35:22.543Z,14.73
2023-05-18T11:38:55.831Z,14.76
2023-05-18T11:42:18.725Z,14.76
2023-05-18T11:45:24.069Z,14.69
2023-05-18T11:48:31.615Z,14.65
2023-05-18T11:51:34.224Z,14.75
2023-05-18T11:54:48.881Z,14.80
2023-05-18T11:57:56.189Z,14.69
2023-05-18T12:01:02.957Z,14.82
2023-05-18T12:04:06.314Z,14.87
2023-05-18T12:07:09.090Z,14.79
2023-05-18T12:10:14.667Z,14.80
2023-05-18T12:13:18.000Z,14.81
2023-05-18T12:16:21.803Z,14.85
2023-05-18T12:19:29.200Z,14.93
2023-05-18T12:22:33.781Z,14.94
2023-05-18T12:25:38.619Z,15.06
2023-05-18T12:28:40.951Z,15.02
2023-05-18T12:31:44.491Z,14.66
2023-05-18T12:34:47.086Z,14.82
2023-05-18T12:37:52.102Z,14.69
2023-05-18T12:40:59.242Z,14.81
2023-05-18T12:44:01.605Z,14.86
2023-05-18T12:47:04.290Z,15.02
2023-05-18T12:50:07.030Z,15.13
2023-05-18T12:53:14.218Z,15.07
2023-05-18T12:56:18.851Z,15.19
2023-05-18T12:59:26.473Z,15.27
2023-05-18T13:02:46.053Z,15.43
2023-05-18T13:06:07.717Z,15.54
2023-05-18T13:09:16.792Z,15.54
2023-05-18T13:12:40.706Z,15.62
2023-05-18T13:15:46.778Z,15.52
2023-05-18T13:18:58.947Z,15.55
2023-05-18T13:22:01.393Z,15.42
2023-05-18T13:25:03.897Z,15.38
2023-05-18T13:28:12.104Z,15.38
2023-05-18T13:31:14.453Z,15.40
2023-05-18T13:34:21.633Z,15.38
2023-05-18T13:37:26.364Z,15.45
2023-05-18T13:43:33.682Z,15.38
2023-05-18T13:46:38.646Z,15.39
2023-05-18T13:49:43.371Z,15.48
2023-05-18T13:52:46.484Z,15.36
2023-05-18T13:55:51.562Z,15.22
2023-05-18T13:58:53.879Z,15.22
2023-05-18T14:01:56.165Z,15.27
2023-05-18T14:04:58.980Z,15.28
2023-05-18T14:08:01.602Z,15.32
2023-05-18T14:11:04.095Z,15.22
2023-05-18T14:14:08.536Z,15.16
2023-05-18T14:17:17.813Z,15.30
2023-05-18T14:20:25.156Z,15.24
2023-05-18T14:23:28.003Z,15.38
2023-05-18T14:26:36.687Z,15.42
2023-05-18T14:29:41.605Z,15.40
2023-05-18T14:32:46.232Z,15.32
2023-05-18T14:35:51.389Z,15.27
2023-05-18T14:38:53.762Z,15.30
2023-05-18T14:41:56.220Z,15.16
2023-05-18T14:44:58.647Z,14.98
2023-05-18T14:48:05.375Z,14.97
2023-05-18T14:51:07.896Z,14.88
2023-05-18T14:54:15.513Z,14.79
2023-05-18T14:57:17.900Z,14.93
2023-05-18T15:00:23.199Z,14.92
2023-05-18T15:03:28.388Z,14.69
2023-05-18T15:06:36.020Z,14.81
2023-05-18T15:09:38.393Z,14.67
2023-05-18T15:12:42.956Z,14.76
2023-05-18T15:15:48.768Z,14.79
2023-05-18T15:18:54.065Z,14.83
2023-05-18T15:21:56.408Z,14.87
2023-05-18T15:25:01.558Z,14.96
2023-05-18T15:28:04.070Z,14.90
2023-05-18T15:31:09.784Z,14.95
2023-05-18T15:34:12.229Z,14.97
2023-05-18T15:37:16.712Z,14.90
2023-05-18T15:40:22.464Z,14.87
2023-05-18T15:43:26.198Z,15.07
2023-05-18T15:46:35.775Z,14.98
2023-05-18T15:49:40.344Z,15.04
2023-05-18T15:52:47.536Z,15.07
2023-05-18T15:55:58.596Z,14.94
2023-05-18T15:59:07.100Z,14.96
2023-05-18T16:02:14.105Z,14.93
2023-05-18T16:05:18.844Z,14.96
2023-05-18T16:08:21.267Z,14.98
2023-05-18T16:11:23.641Z,14.98
2023-05-18T16:14:28.536Z,14.94
2023-05-18T16:17:30.915Z,15.03
2023-05-18T16:20:33.588Z,15.06
2023-05-18T16:23:38.458Z,14.95
2023-05-18T16:26:43.037Z,14.87
2023-05-18T16:29:45.425Z,14.82
2023-05-18T16:32:48.084Z,14.85
2023-05-18T16:35:50.477Z,14.84
2023-05-18T16:38:53.315Z,14.80
2023-05-18T16:41:55.618Z,14.84
2023-05-18T16:45:02.768Z,14.81
2023-05-18T16:48:12.628Z,14.82
2023-05-18T16:51:17.384Z,14.66
2023-05-18T16:54:22.002Z,14.60
2023-05-18T16:57:27.385Z,14.73
2023-05-18T17:00:32.451Z,14.68
2023-05-18T17:03:38.001Z,14.62
2023-05-18T17:06:42.758Z,14.37
2023-05-18T17:09:47.572Z,14.53
2023-05-18T17:12:49.869Z,14.36
2023-05-18T17:15:54.778Z,14.40
2023-05-18T17:18:57.822Z,14.46
2023-05-18T17:22:03.302Z,14.48
2023-05-18T17:25:05.948Z,14.32
2023-05-18T17:28:13.824Z,14.40
2023-05-18T17:31:16.246Z,14.34
2023-05-18T17:34:22.143Z,14.29
2023-05-18T17:37:24.495Z,14.24
2023-05-18T17:40:29.825Z,14.20
2023-05-18T17:43:34.944Z,14.16
2023-05-18T17:46:37.322Z,14.21
2023-05-18T17:49:39.642Z,14.18
2023-05-18T17:52:46.814Z,14.03
2023-05-18T17:55:49.165Z,14.10
2023-05-18T17:58:59.317Z,14.15
2023-05-18T18:02:04.143Z,14.23
2023-05-18T18:05:09.784Z,14.04
2023-05-18T18:08:13.500Z,13.98
2023-05-18T18:11:21.728Z,14.03
2023-05-18T18:14:24.117Z,14.06
2023-05-18T18:17:26.798Z,14.05
2023-05-18T18:20:30.918Z,14.00
2023-05-18T18:23:34.385Z,13.93
2023-05-18T18:26:40.488Z,14.00
2023-05-18T18:29:46.351Z,13.86
2023-05-18T18:32:49.397Z,13.81
2023-05-18T18:35:52.941Z,13.96
2023-05-18T18:38:58.835Z,13.93
2023-05-18T18:42:06.284Z,13.89
2023-05-18T18:45:11.399Z,13.88
2023-05-18T18:48:21.096Z,13.87
2023-05-18T18:51:23.521Z,13.91
2023-05-18T18:54:26.397Z,13.88
2023-05-18T18:57:28.768Z,13.91
2023-05-18T19:00:34.104Z,13.90
2023-05-18T19:03:36.496Z,13.90
2023-05-18T19:06:39.431Z,13.92
2023-05-18T19:09:41.825Z,13.88
2023-05-18T19:12:44.189Z,13.82
2023-05-18T19:15:51.448Z,13.91
2023-05-18T19:18:54.276Z,13.86
2023-05-18T19:21:58.919Z,13.96
2023-05-18T19:25:04.245Z,13.95
2023-05-18T19:28:06.805Z,13.91
2023-05-18T19:31:10.332Z,13.91
2023-05-18T19:34:12.817Z,13.88
2023-05-18T19:37:15.246Z,13.91
2023-05-18T19:40:21.585Z,13.84
2023-05-18T19:43:31.642Z,13.90
2023-05-18T19:46:34.681Z,13.80
2023-05-18T19:49:37.074Z,13.80
2023-05-18T19:52:44.081Z,13.91
2023-05-18T19:55:51.322Z,13.86
2023-05-18T19:58:57.807Z,13.88
2023-05-18T20:02:03.644Z,13.89
2023-05-18T20:05:07.188Z,13.85
2023-05-18T20:08:10.097Z,13.80
2023-05-18T20:11:19.271Z,13.80
2023-05-18T20:14:27.072Z,13.86
2023-05-18T20:17:29.552Z,13.86
2023-05-18T20:20:33.212Z,13.87
2023-05-18T20:23:35.824Z,13.83
2023-05-18T20:26:39.634Z,13.88
2023-05-18T20:29:42.441Z,13.98
2023-05-18T20:32:44.947Z,13.97
2023-05-18T20:35:47.314Z,13.87
2023-05-18T20:38:53.375Z,13.87
2023-05-18T20:41:57.679Z,13.83
2023-05-18T20:45:00.146Z,13.83
2023-05-18T20:48:03.547Z,13.85
2023-05-18T20:51:06.703Z,13.89
2023-05-18T20:54:16.479Z,13.92
2023-05-18T20:57:21.339Z,13.89
2023-05-18T21:00:26.015Z,13.90
2023-05-18T21:03:30.482Z,14.00
2023-05-18T21:06:36.333Z,13.96
2023-05-18T21:09:40.929Z,13.95
2023-05-18T21:12:43.671Z,13.96
2023-05-18T21:15:48.398Z,13.92
2023-05-18T21:18:53.066Z,13.92
2023-05-18T21:21:57.712Z,14.10
2023-05-18T21:25:00.040Z,14.06
2023-05-18T21:28:02.499Z,13.98
2023-05-18T21:31:09.812Z,13.96
2023-05-18T21:34:12.218Z,13.98
2023-05-18T21:37:15.018Z,14.00
2023-05-18T21:40:17.410Z,13.95
2023-05-18T21:43:24.430Z,13.97
2023-05-18T21:46:27.422Z,13.99
2023-05-18T21:49:32.029Z,13.94
2023-05-18T21:52:37.143Z,13.91
2023-05-18T21:55:41.954Z,13.91
2023-05-18T21:58:44.275Z,13.99
2023-05-18T22:01:46.745Z,13.90
2023-05-18T22:04:49.095Z,13.76
2023-05-18T22:07:52.212Z,13.69
2023-05-18T22:10:54.609Z,13.75
2023-05-18T22:13:59.157Z,13.72
2023-05-18T22:17:02.234Z,13.83
2023-05-18T22:20:06.528Z,13.81
2023-05-18T22:23:11.591Z,13.68
2023-05-18T22:26:14.016Z,13.76
2023-05-18T22:29:16.954Z,13.76
2023-05-18T22:32:19.400Z,13.83
2023-05-18T22:35:24.238Z,13.85
2023-05-18T22:38:26.884Z,13.85
2023-05-18T22:41:31.672Z,13.91
2023-05-18T22:44:33.949Z,13.95
2023-05-18T22:47:36.336Z,13.94
2023-05-18T22:50:40.965Z,14.00
2023-05-18T22:53:43.259Z,14.04
2023-05-18T22:56:46.240Z,14.00
2023-05-18T22:59:50.829Z,14.03
2023-05-18T23:02:53.673Z,14.00
2023-05-18T23:05:56.375Z,13.97
2023-05-18T23:09:03.280Z,13.95
2023-05-18T23:12:06.682Z,13.95
2023-05-18T23:15:12.364Z,13.87
2023-05-18T23:18:17.159Z,13.88
2023-05-18T23:21:21.514Z,13.82
2023-05-18T23:24:23.915Z,13.83
2023-05-18T23:27:26.196Z,13.82
2023-05-18T23:30:32.194Z,13.78
2023-05-18T23:33:37.473Z,13.43
2023-05-18T23:36:42.808Z,13.32
2023-05-18T23:39:53.450Z,13.11
2023-05-18T23:42:56.140Z,13.12
2023-05-18T23:46:01.483Z,13.02
2023-05-18T23:49:04.556Z,12.99
2023-05-18T23:52:07.950Z,12.97
2023-05-18T23:55:13.443Z,12.92
2023-05-18T23:58:19.279Z,12.82
